Time;durP1;ratioP1;P1;durP2;ratioP2;P2;SDS_P1;SDS_P2;PMS_P1;PMS_P2;Temp;Humidity;BMP_temperature;BMP_pressure;BME280_temperature;BME280_humidity;BME280_pressure;Samples;Min_cycle;Max_cycle;Signal;HPM_P1;HPM_P2
2022/08/17 00:00:19;;;;;;;0.40;0.30;;;20.60;99.90;;;;;;5092471;28;20435;-75
2022/08/17 00:02:56;;;;;;;0.70;0.50;;;20.50;99.90;;;;;;5090829;28;20382;-75
2022/08/17 00:05:22;;;;;;;0.40;0.38;;;20.50;99.90;;;;;;5091059;28;20601;-76
2022/08/17 00:07:47;;;;;;;0.40;0.30;;;20.70;99.90;;;;;;5092266;28;20390;-75
2022/08/17 00:10:13;;;;;;;0.50;0.50;;;20.70;99.90;;;;;;5092149;28;20752;-75
2022/08/17 00:12:40;;;;;;;0.40;0.30;;;20.90;99.90;;;;;;5091772;28;20374;-76
2022/08/17 00:15:07;;;;;;;0.50;0.40;;;21.00;99.90;;;;;;5092234;28;20388;-76
2022/08/17 00:17:32;;;;;;;0.40;0.30;;;21.10;99.90;;;;;;5092162;28;20917;-76
2022/08/17 00:19:59;;;;;;;0.70;0.60;;;21.10;99.90;;;;;;5091966;28;20414;-76
2022/08/17 00:22:25;;;;;;;0.60;0.60;;;21.30;99.90;;;;;;5091722;28;20381;-76
2022/08/17 00:24:51;;;;;;;0.40;0.30;;;21.30;99.90;;;;;;5091549;28;20465;-76
2022/08/17 00:27:17;;;;;;;0.55;0.35;;;21.40;99.90;;;;;;5091729;28;20394;-76
2022/08/17 00:29:44;;;;;;;0.40;0.30;;;21.50;99.40;;;;;;5092089;28;20386;-75
2022/08/17 00:32:11;;;;;;;0.40;0.22;;;21.80;98.50;;;;;;5090708;28;20430;-75
2022/08/17 00:34:36;;;;;;;0.40;0.30;;;21.90;99.30;;;;;;5085868;28;20488;-75
2022/08/17 00:37:02;;;;;;;0.70;0.50;;;21.90;99.90;;;;;;5091298;28;20524;-75
2022/08/17 00:39:28;;;;;;;0.40;0.30;;;21.90;99.90;;;;;;5091415;28;20383;-75
2022/08/17 00:41:53;;;;;;;0.50;0.40;;;22.00;99.90;;;;;;5089855;28;20398;-74
2022/08/17 00:44:19;;;;;;;0.40;0.30;;;22.10;99.90;;;;;;5091167;28;20890;-75
2022/08/17 00:46:46;;;;;;;0.40;0.30;;;22.10;99.90;;;;;;5091103;28;20945;-75
2022/08/17 00:49:13;;;;;;;0.40;0.30;;;22.00;99.90;;;;;;5091333;28;20390;-76
2022/08/17 00:51:47;;;;;;;0.40;0.30;;;22.10;99.90;;;;;;5090959;28;20389;-76
2022/08/17 00:54:21;;;;;;;0.40;0.30;;;22.10;99.90;;;;;;5090789;28;20380;-76
2022/08/17 00:56:52;;;;;;;0.40;0.30;;;22.30;99.90;;;;;;5090847;28;20406;-75
2022/08/17 00:59:21;;;;;;;0.40;0.30;;;22.40;99.90;;;;;;5091161;28;20398;-74
2022/08/17 01:01:48;;;;;;;0.40;0.30;;;22.40;99.90;;;;;;5090898;28;20890;-75
2022/08/17 01:04:16;;;;;;;0.40;0.20;;;22.40;99.90;;;;;;5090765;28;20760;-75
2022/08/17 01:06:44;;;;;;;0.40;0.20;;;22.50;99.90;;;;;;5090490;28;20393;-76
2022/08/17 01:09:09;;;;;;;0.40;0.20;;;22.50;99.90;;;;;;5090986;28;20393;-74
2022/08/17 01:11:38;;;;;;;0.40;0.30;;;22.50;99.90;;;;;;5090937;28;20446;-76
2022/08/17 01:14:04;;;;;;;0.50;0.40;;;22.50;99.90;;;;;;5089086;28;20439;-74
2022/08/17 01:16:31;;;;;;;0.40;0.20;;;22.60;99.90;;;;;;5089448;28;20845;-74
2022/08/17 01:19:01;;;;;;;0.40;0.30;;;22.70;99.90;;;;;;5090783;28;20389;-75
2022/08/17 01:21:43;;;;;;;0.50;0.50;;;22.80;99.90;;;;;;5090519;28;20370;-74
2022/08/17 01:24:08;;;;;;;2.40;1.10;;;22.80;99.90;;;;;;5090495;28;20382;-72
2022/08/17 01:26:35;;;;;;;0.40;0.20;;;22.70;99.90;;;;;;5090542;28;20470;-74
2022/08/17 01:29:03;;;;;;;0.40;0.20;;;22.80;99.90;;;;;;5090537;28;20382;-76
2022/08/17 01:31:34;;;;;;;0.40;0.30;;;22.80;99.90;;;;;;5090543;28;20852;-74
2022/08/17 01:34:04;;;;;;;0.40;0.20;;;22.80;99.90;;;;;;5088636;28;20425;-74
2022/08/17 01:36:30;;;;;;;1.00;0.50;;;22.80;99.90;;;;;;5088909;28;20477;-76
2022/08/17 01:38:55;;;;;;;1.50;1.30;;;22.80;99.90;;;;;;5090426;28;20482;-77
2022/08/17 01:41:23;;;;;;;0.50;0.50;;;22.80;99.90;;;;;;5090412;28;20390;-74
2022/08/17 01:44:00;;;;;;;0.40;0.30;;;22.80;99.90;;;;;;5090102;28;20864;-76
2022/08/17 01:46:29;;;;;;;0.50;0.40;;;23.00;99.90;;;;;;5090065;28;20393;-74
2022/08/17 01:48:56;;;;;;;0.60;0.50;;;22.90;99.90;;;;;;5088850;28;20444;-74
2022/08/17 01:51:24;;;;;;;0.40;0.30;;;22.90;99.90;;;;;;5089011;28;20405;-74
2022/08/17 01:53:53;;;;;;;0.40;0.30;;;22.90;99.90;;;;;;5090066;28;20374;-74
2022/08/17 01:56:21;;;;;;;0.60;0.50;;;22.80;99.90;;;;;;5089264;28;20389;-74
2022/08/17 01:58:47;;;;;;;0.40;0.20;;;22.60;99.90;;;;;;5069929;28;20395;-76
2022/08/17 02:01:14;;;;;;;0.40;0.30;;;22.40;99.90;;;;;;5068840;28;20387;-74
2022/08/17 02:03:40;;;;;;;0.40;0.30;;;22.30;99.90;;;;;;5069686;28;20467;-74
2022/08/17 02:06:07;;;;;;;0.40;0.40;;;22.20;99.90;;;;;;5068637;28;20379;-76
2022/08/17 02:08:34;;;;;;;0.40;0.30;;;22.10;99.90;;;;;;5069920;28;20934;-76
2022/08/17 02:11:02;;;;;;;0.43;0.38;;;22.00;99.90;;;;;;5070027;28;20387;-74
2022/08/17 02:13:29;;;;;;;0.40;0.30;;;21.90;99.90;;;;;;5067950;28;20430;-74
2022/08/17 02:15:56;;;;;;;0.40;0.30;;;21.90;99.90;;;;;;5069947;28;20380;-74
2022/08/17 02:18:22;;;;;;;0.40;0.40;;;21.90;99.90;;;;;;5069560;28;20868;-74
2022/08/17 02:20:48;;;;;;;1.60;0.90;;;21.90;99.90;;;;;;5069840;28;20419;-76
2022/08/17 02:23:14;;;;;;;0.40;0.30;;;21.90;99.90;;;;;;5069357;28;20411;-76
2022/08/17 02:25:42;;;;;;;0.43;0.40;;;21.80;99.90;;;;;;5069821;28;20792;-76
2022/08/17 02:28:08;;;;;;;0.40;0.30;;;21.70;99.90;;;;;;5071232;28;20469;-76
2022/08/17 02:30:34;;;;;;;0.40;0.30;;;21.70;99.90;;;;;;5068618;28;20424;-77
2022/08/17 02:33:00;;;;;;;0.70;0.70;;;21.70;99.90;;;;;;5069446;28;20892;-74
2022/08/17 02:35:26;;;;;;;0.40;0.40;;;21.70;99.90;;;;;;5069660;28;20418;-77
2022/08/17 02:37:51;;;;;;;0.50;0.40;;;21.70;99.90;;;;;;5076310;28;20409;-76
2022/08/17 02:40:17;;;;;;;0.40;0.20;;;21.60;99.90;;;;;;5082223;28;20887;-76
2022/08/17 02:42:44;;;;;;;0.40;0.20;;;21.70;99.90;;;;;;5081587;28;20708;-76
2022/08/17 02:45:14;;;;;;;1.17;0.85;;;21.70;99.90;;;;;;5085282;28;20392;-76
2022/08/17 02:47:40;;;;;;;0.82;0.82;;;21.60;99.90;;;;;;5082228;28;20401;-76
2022/08/17 02:50:07;;;;;;;0.40;0.30;;;21.60;99.90;;;;;;5088201;28;20389;-74
2022/08/17 02:52:36;;;;;;;0.60;0.50;;;21.60;99.90;;;;;;5092930;28;20382;-74
2022/08/17 02:55:07;;;;;;;0.40;0.30;;;21.60;99.90;;;;;;5093268;28;20382;-76
2022/08/17 02:57:33;;;;;;;0.40;0.40;;;21.60;99.90;;;;;;5093301;28;20394;-76
2022/08/17 02:59:58;;;;;;;0.40;0.30;;;21.60;99.90;;;;;;5093402;28;20412;-74
2022/08/17 03:02:24;;;;;;;0.55;0.55;;;21.60;99.90;;;;;;5091936;28;20381;-77
2022/08/17 03:04:49;;;;;;;0.60;0.60;;;21.60;99.90;;;;;;5092857;28;20752;-74
2022/08/17 03:07:15;;;;;;;0.40;0.30;;;21.60;99.90;;;;;;5092712;28;20398;-74
2022/08/17 03:09:41;;;;;;;0.80;0.80;;;21.50;99.90;;;;;;5093352;28;20386;-77
2022/08/17 03:12:12;;;;;;;0.40;0.30;;;21.50;99.90;;;;;;5091931;28;20378;-74
2022/08/17 03:14:40;;;;;;;0.40;0.40;;;21.50;99.90;;;;;;5091651;28;20382;-74
2022/08/17 03:17:05;;;;;;;0.40;0.30;;;21.50;99.90;;;;;;5091742;28;20382;-75
2022/08/17 03:19:31;;;;;;;0.40;0.20;;;21.50;99.90;;;;;;5093038;28;20819;-75
2022/08/17 03:21:58;;;;;;;0.40;0.20;;;21.50;99.90;;;;;;5092982;28;20876;-75
2022/08/17 03:24:23;;;;;;;0.40;0.30;;;21.60;99.90;;;;;;5093010;28;20443;-75
2022/08/17 03:26:49;;;;;;;0.70;0.60;;;21.50;99.90;;;;;;5092830;28;20485;-76
2022/08/17 03:29:17;;;;;;;0.40;0.27;;;21.50;99.90;;;;;;5092915;28;20395;-75
2022/08/17 03:31:45;;;;;;;0.70;0.60;;;21.60;99.90;;;;;;5093044;28;20851;-75
2022/08/17 03:34:11;;;;;;;0.40;0.25;;;21.60;99.90;;;;;;5091370;28;20821;-75
2022/08/17 03:36:37;;;;;;;0.50;0.40;;;21.70;99.90;;;;;;5092508;28;20386;-75
2022/08/17 03:39:03;;;;;;;0.40;0.22;;;21.70;99.90;;;;;;5092899;28;20459;-76
2022/08/17 03:41:29;;;;;;;0.40;0.30;;;21.60;99.90;;;;;;5092934;28;20386;-75
2022/08/17 03:43:54;;;;;;;0.40;0.20;;;21.50;99.90;;;;;;5092607;28;20467;-75
2022/08/17 03:57:19;;;;;;;0.40;0.30;;;21.60;99.90;;;;;;5092059;28;20408;-75
2022/08/17 03:59:46;;;;;;;0.40;0.30;;;21.40;99.90;;;;;;5092384;28;20470;-75
2022/08/17 04:02:25;;;;;;;0.40;0.30;;;21.30;99.90;;;;;;5092567;28;20458;-75
2022/08/17 04:04:51;;;;;;;0.40;0.20;;;21.20;99.90;;;;;;5092430;28;20473;-75
2022/08/17 04:07:22;;;;;;;0.40;0.30;;;21.20;99.90;;;;;;5092339;28;20481;-75
2022/08/17 04:09:48;;;;;;;0.93;0.93;;;21.10;99.90;;;;;;5092422;28;20378;-75
2022/08/17 04:12:20;;;;;;;0.80;0.80;;;21.00;99.90;;;;;;5092297;28;20393;-75
2022/08/17 04:14:46;;;;;;;0.40;0.30;;;20.60;99.90;;;;;;5090718;28;20456;-74
2022/08/17 04:17:11;;;;;;;0.40;0.20;;;20.00;99.90;;;;;;5092170;28;20882;-74
2022/08/17 04:19:37;;;;;;;0.40;0.20;;;19.10;99.90;;;;;;5092532;28;20474;-74
2022/08/17 04:22:04;;;;;;;1.00;0.90;;;19.00;99.90;;;;;;5092369;28;20476;-74
2022/08/17 04:24:30;;;;;;;0.45;0.32;;;18.90;99.90;;;;;;5092164;28;20416;-74
2022/08/17 04:26:57;;;;;;;0.60;0.60;;;18.80;99.90;;;;;;5092193;28;20389;-74
2022/08/17 04:29:24;;;;;;;0.40;0.20;;;18.80;99.90;;;;;;5092136;28;20374;-74
2022/08/17 04:31:50;;;;;;;0.40;0.30;;;18.80;99.90;;;;;;5092406;28;20409;-74
2022/08/17 04:34:16;;;;;;;1.10;1.10;;;18.90;99.90;;;;;;5093769;28;20732;-74
2022/08/17 04:36:42;;;;;;;0.40;0.33;;;18.80;99.90;;;;;;5092246;28;20389;-74
2022/08/17 04:39:08;;;;;;;0.40;0.40;;;18.70;99.90;;;;;;5090967;28;20914;-74
2022/08/17 04:44:17;;;;;;;0.40;0.30;;;18.80;99.90;;;;;;5091824;28;20471;-74
2022/08/17 04:46:43;;;;;;;0.50;0.50;;;18.80;99.90;;;;;;5085050;28;20433;-74
2022/08/17 04:49:10;;;;;;;0.40;0.40;;;18.80;99.90;;;;;;5091756;28;20465;-74
2022/08/17 04:51:41;;;;;;;1.00;0.90;;;18.70;99.90;;;;;;5091880;28;20388;-73
2022/08/17 04:54:13;;;;;;;0.40;0.30;;;18.80;99.90;;;;;;5091566;28;20385;-73
2022/08/17 04:56:39;;;;;;;0.40;0.20;;;18.80;99.90;;;;;;5091921;28;20378;-73
2022/08/17 04:59:08;;;;;;;0.50;0.30;;;18.70;99.90;;;;;;5091488;28;20767;-73
2022/08/17 05:01:36;;;;;;;0.40;0.40;;;18.70;99.90;;;;;;5091836;28;20428;-73
2022/08/17 05:04:05;;;;;;;0.40;0.30;;;18.80;99.90;;;;;;5090087;28;20395;-73
2022/08/17 05:06:31;;;;;;;0.40;0.30;;;18.70;99.90;;;;;;5091792;28;20393;-73
2022/08/17 05:08:57;;;;;;;0.40;0.35;;;18.80;99.90;;;;;;5091492;28;20769;-72
2022/08/17 05:11:25;;;;;;;0.40;0.30;;;18.70;99.90;;;;;;5090017;28;20405;-73
2022/08/17 05:13:51;;;;;;;0.50;0.47;;;18.60;99.90;;;;;;5091297;28;20462;-73
2022/08/17 05:16:19;;;;;;;0.40;0.20;;;18.50;99.90;;;;;;5091312;28;20413;-73
2022/08/17 05:18:45;;;;;;;0.40;0.30;;;18.50;99.90;;;;;;5091308;28;20382;-73
2022/08/17 05:21:12;;;;;;;0.40;0.30;;;18.60;99.90;;;;;;5091345;28;20390;-72
2022/08/17 05:23:38;;;;;;;0.40;0.30;;;18.50;99.90;;;;;;5091058;28;20809;-73
2022/08/17 05:26:04;;;;;;;0.40;0.30;;;18.50;99.90;;;;;;5084017;28;20488;-73
2022/08/17 05:28:30;;;;;;;0.40;0.20;;;18.60;99.90;;;;;;5084929;28;20765;-73
2022/08/17 05:30:58;;;;;;;0.70;0.50;;;18.80;99.90;;;;;;5083070;28;20496;-73
2022/08/17 05:33:27;;;;;;;0.40;0.30;;;18.70;99.90;;;;;;5082257;28;20425;-72
2022/08/17 05:35:57;;;;;;;0.95;0.93;;;18.60;99.90;;;;;;5088891;28;20487;-72
2022/08/17 05:38:24;;;;;;;0.40;0.20;;;18.60;99.90;;;;;;5089553;28;20404;-72
2022/08/17 05:40:51;;;;;;;0.40;0.20;;;18.60;99.90;;;;;;5090838;28;20389;-72
2022/08/17 05:43:31;;;;;;;0.82;0.82;;;18.70;99.90;;;;;;5088103;28;20394;-73
2022/08/17 05:46:15;;;;;;;0.40;0.40;;;18.80;99.90;;;;;;5089606;28;20406;-73
2022/08/17 05:48:53;;;;;;;0.40;0.30;;;18.80;99.90;;;;;;5083824;28;20390;-73
2022/08/17 05:51:40;;;;;;;0.40;0.30;;;18.80;99.90;;;;;;5090932;28;20415;-73
2022/08/17 05:54:05;;;;;;;0.40;0.30;;;18.80;99.90;;;;;;5084325;28;20874;-74
2022/08/17 05:57:07;;;;;;;0.40;0.25;;;19.10;99.90;;;;;;5083409;28;20478;-74
2022/08/17 05:59:50;;;;;;;0.40;0.40;;;19.10;99.90;;;;;;5058733;28;20469;-73
2022/08/17 06:02:40;;;;;;;0.40;0.30;;;19.10;99.90;;;;;;5083499;28;20391;-74
2022/08/17 06:05:31;;;;;;;0.40;0.20;;;19.30;99.90;;;;;;5087025;28;20423;-73
2022/08/17 06:08:06;;;;;;;0.40;0.30;;;19.30;99.90;;;;;;5090441;28;20895;-73
2022/08/17 06:11:02;;;;;;;0.40;0.40;;;19.20;99.90;;;;;;5083682;28;20393;-74
2022/08/17 06:13:39;;;;;;;0.50;0.40;;;19.30;99.90;;;;;;5088324;28;20386;-73
2022/08/17 06:16:14;;;;;;;0.40;0.30;;;19.30;99.90;;;;;;5090336;28;20381;-74
2022/08/17 06:18:49;;;;;;;0.40;0.30;;;19.30;99.90;;;;;;5090523;28;20378;-74
2022/08/17 06:21:17;;;;;;;0.70;0.70;;;19.20;99.90;;;;;;5091456;28;21082;-73
2022/08/17 06:24:21;;;;;;;0.40;0.30;;;19.30;99.90;;;;;;5094360;28;20872;-73
2022/08/17 06:26:47;;;;;;;0.40;0.40;;;19.30;99.90;;;;;;5075623;28;20409;-74
2022/08/17 06:29:34;;;;;;;0.40;0.30;;;19.30;99.90;;;;;;5094460;28;20385;-74
2022/08/17 06:32:01;;;;;;;0.85;0.65;;;19.20;99.90;;;;;;5094411;28;20377;-74
2022/08/17 06:34:28;;;;;;;0.40;0.30;;;19.30;99.90;;;;;;5094251;28;20909;-74
2022/08/17 06:37:11;;;;;;;0.40;0.40;;;19.30;99.90;;;;;;5094367;28;20406;-73
2022/08/17 06:39:56;;;;;;;0.40;0.30;;;19.30;99.90;;;;;;5094381;28;20887;-74
2022/08/17 06:42:46;;;;;;;0.40;0.30;;;19.20;99.90;;;;;;5092758;28;20397;-74
2022/08/17 06:45:29;;;;;;;0.40;0.30;;;19.30;99.90;;;;;;5092248;28;20806;-74
2022/08/17 06:48:00;;;;;;;0.40;0.30;;;19.30;99.90;;;;;;5091657;28;20400;-74
2022/08/17 06:50:37;;;;;;;0.70;0.70;;;19.40;99.90;;;;;;5093984;28;20416;-74
2022/08/17 06:53:16;;;;;;;0.40;0.30;;;19.40;99.90;;;;;;5093562;28;20381;-74
2022/08/17 06:55:43;;;;;;;0.40;0.30;;;19.30;99.90;;;;;;5092434;28;20386;-74
2022/08/17 06:58:11;;;;;;;0.40;0.30;;;19.30;99.90;;;;;;5093570;28;20763;-74
2022/08/17 07:00:41;;;;;;;1.00;1.00;;;19.30;99.90;;;;;;5093865;28;20396;-74
2022/08/17 07:03:07;;;;;;;0.50;0.50;;;19.20;99.90;;;;;;5093752;28;20395;-74
2022/08/17 07:05:39;;;;;;;0.40;0.30;;;19.20;99.90;;;;;;5092677;28;20385;-74
2022/08/17 07:08:18;;;;;;;0.90;0.90;;;19.50;99.90;;;;;;5093204;28;20402;-74
2022/08/17 07:10:49;;;;;;;0.40;0.30;;;19.50;99.90;;;;;;5093773;28;20465;-74
2022/08/17 07:13:24;;;;;;;0.80;0.80;;;19.60;99.90;;;;;;5091910;28;20374;-75
2022/08/17 07:15:55;;;;;;;0.45;0.43;;;19.70;99.90;;;;;;5093141;28;20381;-74
2022/08/17 07:18:23;;;;;;;0.40;0.40;;;19.90;99.90;;;;;;5093231;28;20401;-75
2022/08/17 07:20:52;;;;;;;0.70;0.70;;;20.00;99.90;;;;;;5093245;28;20397;-75
2022/08/17 07:23:18;;;;;;;0.40;0.20;;;20.10;99.90;;;;;;5091812;28;20435;-74
2022/08/17 07:25:43;;;;;;;0.40;0.20;;;19.90;99.90;;;;;;5093525;28;20385;-74
2022/08/17 07:28:09;;;;;;;0.90;0.90;;;20.00;99.90;;;;;;5093079;28;20394;-75
2022/08/17 07:30:48;;;;;;;0.40;0.30;;;20.00;99.90;;;;;;5093241;28;20374;-75
2022/08/17 07:33:18;;;;;;;0.40;0.20;;;20.00;99.90;;;;;;5091759;28;20431;-76
2022/08/17 07:35:47;;;;;;;1.27;0.95;;;20.10;99.90;;;;;;5093237;28;20378;-75
2022/08/17 07:38:29;;;;;;;0.40;0.30;;;20.00;99.90;;;;;;5092905;28;20374;-74
2022/08/17 07:41:07;;;;;;;0.60;0.50;;;20.20;99.90;;;;;;5088156;28;20811;-75
2022/08/17 07:43:38;;;;;;;0.80;0.60;;;20.10;99.90;;;;;;5088774;28;20377;-75
2022/08/17 07:48:56;;;;;;;0.40;0.20;;;20.10;99.90;;;;;;5083245;28;20399;-75
2022/08/17 07:51:28;;;;;;;0.40;0.20;;;20.30;99.90;;;;;;5092595;28;20378;-74
2022/08/17 07:53:59;;;;;;;0.40;0.30;;;20.50;99.90;;;;;;5090721;28;20370;-74
2022/08/17 07:56:40;;;;;;;0.40;0.30;;;20.40;99.90;;;;;;5088504;28;20389;-74
2022/08/17 07:59:09;;;;;;;0.40;0.30;;;20.50;99.90;;;;;;5088844;28;20378;-75
2022/08/17 08:01:36;;;;;;;0.40;0.30;;;20.50;99.90;;;;;;5092080;28;20378;-75
2022/08/17 08:04:15;;;;;;;0.40;0.30;;;20.50;99.90;;;;;;5092328;28;20863;-75
2022/08/17 08:06:48;;;;;;;0.40;0.30;;;20.50;99.90;;;;;;5092497;28;20390;-76
2022/08/17 08:09:36;;;;;;;0.40;0.20;;;20.60;99.90;;;;;;5092431;28;20909;-75
2022/08/17 08:12:32;;;;;;;0.40;0.20;;;20.70;99.90;;;;;;5086732;28;20382;-74
2022/08/17 08:14:59;;;;;;;0.40;0.30;;;20.90;99.90;;;;;;5087733;28;20378;-74
2022/08/17 08:17:33;;;;;;;0.50;0.50;;;21.00;99.90;;;;;;5092228;28;20374;-74
2022/08/17 08:19:59;;;;;;;0.40;0.30;;;21.20;99.90;;;;;;5092277;28;20941;-74
2022/08/17 08:22:35;;;;;;;0.50;0.40;;;21.40;99.90;;;;;;5087723;28;20457;-73
2022/08/17 08:25:22;;;;;;;0.50;0.50;;;21.50;99.90;;;;;;5091737;28;20770;-75
2022/08/17 08:28:08;;;;;;;1.80;0.90;;;21.70;99.90;;;;;;5085956;28;20409;-74
2022/08/17 08:30:45;;;;;;;0.40;0.30;;;21.60;99.90;;;;;;5091971;28;20851;-74
2022/08/17 08:33:36;;;;;;;0.40;0.40;;;21.80;99.90;;;;;;5091866;28;20408;-74
2022/08/17 08:36:23;;;;;;;0.40;0.30;;;21.90;99.90;;;;;;5085058;28;20923;-74
2022/08/17 08:38:59;;;;;;;0.40;0.30;;;21.90;99.90;;;;;;5089034;28;20481;-74
2022/08/17 08:41:49;;;;;;;0.40;0.30;;;21.70;99.90;;;;;;5087504;28;20891;-73
2022/08/17 08:44:23;;;;;;;0.40;0.40;;;21.70;99.90;;;;;;5088110;28;20394;-73
2022/08/17 08:46:56;;;;;;;0.40;0.20;;;21.80;99.90;;;;;;5091837;28;20401;-75
2022/08/17 08:49:46;;;;;;;0.90;0.70;;;22.00;99.90;;;;;;5090700;28;20469;-75
2022/08/17 08:52:26;;;;;;;0.40;0.40;;;21.90;99.90;;;;;;5090828;28;22187;-75
2022/08/17 08:55:09;;;;;;;0.40;0.30;;;21.90;99.90;;;;;;5085472;28;20503;-75
2022/08/17 08:57:47;;;;;;;0.40;0.30;;;21.80;99.90;;;;;;5083099;28;20875;-77
2022/08/17 09:00:18;;;;;;;0.90;0.90;;;21.70;99.90;;;;;;5084254;28;20406;-77
2022/08/17 09:03:14;;;;;;;0.40;0.23;;;21.50;99.90;;;;;;5087653;28;20460;-78
2022/08/17 09:06:06;;;;;;;0.40;0.30;;;21.50;99.90;;;;;;5081967;28;20446;-79
2022/08/17 09:08:58;;;;;;;0.60;0.50;;;21.40;99.90;;;;;;5085871;28;20413;-78
2022/08/17 09:11:51;;;;;;;0.40;0.20;;;21.40;99.90;;;;;;5086715;28;20455;-78
2022/08/17 09:14:45;;;;;;;0.40;0.40;;;21.50;99.90;;;;;;5088085;28;20391;-74
2022/08/17 09:17:37;;;;;;;0.40;0.30;;;21.30;99.90;;;;;;5071602;28;20401;-74
2022/08/17 09:20:17;;;;;;;0.40;0.30;;;21.30;99.90;;;;;;5089573;28;20385;-77
2022/08/17 09:22:51;;;;;;;0.40;0.30;;;21.30;99.90;;;;;;5090465;28;20423;-76
2022/08/17 09:25:27;;;;;;;0.40;0.30;;;21.40;99.90;;;;;;5089279;28;20439;-76
2022/08/17 09:28:02;;;;;;;0.40;0.30;;;21.30;99.90;;;;;;5090887;28;20425;-76
2022/08/17 09:30:39;;;;;;;0.40;0.30;;;21.40;99.90;;;;;;5090787;28;21075;-77
2022/08/17 09:33:10;;;;;;;0.80;0.80;;;21.40;99.90;;;;;;5090577;28;20375;-76
2022/08/17 09:35:43;;;;;;;0.40;0.30;;;21.50;99.90;;;;;;5089049;28;20377;-77
2022/08/17 09:38:26;;;;;;;0.40;0.30;;;21.40;99.90;;;;;;5090723;28;20392;-78
2022/08/17 09:41:13;;;;;;;0.40;0.40;;;21.30;99.90;;;;;;5090690;28;20785;-77
2022/08/17 09:43:48;;;;;;;0.40;0.30;;;21.30;99.90;;;;;;5090553;28;20543;-78
2022/08/17 09:46:35;;;;;;;0.40;0.30;;;21.30;99.90;;;;;;5090821;28;20451;-77
2022/08/17 09:49:24;;;;;;;0.40;0.40;;;21.10;99.90;;;;;;5090660;28;20382;-77
2022/08/17 09:52:16;;;;;;;0.40;0.30;;;21.00;99.90;;;;;;5090682;28;20370;-77
2022/08/17 09:54:43;;;;;;;0.40;0.30;;;20.80;99.90;;;;;;5088820;28;20451;-77
2022/08/17 09:57:17;;;;;;;0.57;0.57;;;20.70;99.90;;;;;;5089917;28;20374;-77
2022/08/17 10:00:01;;;;;;;0.40;0.20;;;20.70;99.90;;;;;;5089301;28;20470;-77
2022/08/17 10:02:47;;;;;;;0.40;0.30;;;20.70;99.90;;;;;;5090422;28;20393;-78
2022/08/17 10:05:15;;;;;;;0.40;0.30;;;20.60;99.90;;;;;;5090500;28;20382;-77
2022/08/17 10:08:13;;;;;;;0.40;0.30;;;20.80;99.90;;;;;;5090283;28;20404;-77
2022/08/17 10:11:06;;;;;;;0.55;0.55;;;20.90;99.90;;;;;;5082462;28;20401;-79
2022/08/17 10:14:00;;;;;;;1.27;0.50;;;21.10;99.90;;;;;;5090002;28;20405;-77
2022/08/17 10:16:50;;;;;;;0.60;0.60;;;21.20;99.90;;;;;;5088476;28;20790;-77
2022/08/17 10:19:37;;;;;;;0.40;0.30;;;21.40;99.90;;;;;;5090426;28;20374;-77
2022/08/17 10:27:47;;;;;;;0.40;0.30;;;21.80;99.90;;;;;;5090306;28;20421;-78
2022/08/17 10:30:17;;;;;;;0.40;0.30;;;21.80;99.90;;;;;;5090284;28;20484;-77
2022/08/17 10:32:57;;;;;;;0.40;0.30;;;21.80;99.90;;;;;;5089980;28;20370;-77
2022/08/17 10:35:38;;;;;;;0.40;0.30;;;22.00;99.90;;;;;;5089545;28;20928;-78
2022/08/17 10:38:13;;;;;;;0.40;0.20;;;22.10;99.90;;;;;;5090124;28;20843;-77
2022/08/17 10:41:16;;;;;;;0.40;0.40;;;22.30;99.90;;;;;;5090217;28;20389;-78
2022/08/17 10:43:54;;;;;;;0.40;0.30;;;22.30;99.90;;;;;;5089716;28;20413;-78
2022/08/17 10:46:40;;;;;;;0.40;0.20;;;22.40;99.90;;;;;;5089998;28;20374;-78
2022/08/17 10:49:15;;;;;;;0.60;0.60;;;22.60;99.90;;;;;;5090027;28;20880;-79
2022/08/17 10:51:41;;;;;;;0.90;0.90;;;22.80;99.90;;;;;;5090085;28;20796;-78
2022/08/17 10:54:34;;;;;;;0.40;0.30;;;22.80;99.90;;;;;;5089731;28;20409;-77
2022/08/17 10:57:00;;;;;;;0.40;0.30;;;22.90;99.90;;;;;;5089582;28;20458;-77
2022/08/17 10:59:35;;;;;;;0.40;0.20;;;23.00;99.90;;;;;;5089718;28;20382;-76
2022/08/17 11:02:16;;;;;;;0.40;0.40;;;23.10;99.90;;;;;;5090279;28;20426;-78
2022/08/17 11:04:59;;;;;;;0.40;0.30;;;23.40;99.90;;;;;;5089773;28;20740;-77
2022/08/17 11:07:44;;;;;;;0.40;0.20;;;23.90;99.90;;;;;;5089886;28;20470;-78
2022/08/17 11:10:14;;;;;;;0.40;0.30;;;24.40;99.90;;;;;;5091118;28;20397;-77
2022/08/17 11:13:00;;;;;;;0.40;0.30;;;24.60;99.90;;;;;;5092248;28;20382;-78
2022/08/17 11:15:50;;;;;;;0.40;0.40;;;24.50;99.90;;;;;;5090288;28;20798;-78
2022/08/17 11:18:21;;;;;;;0.93;0.60;;;24.30;99.90;;;;;;5089898;28;20820;-77
2022/08/17 11:21:13;;;;;;;0.40;0.30;;;24.20;99.90;;;;;;5091231;28;20449;-78
2022/08/17 11:24:00;;;;;;;0.40;0.40;;;24.10;99.90;;;;;;5053100;28;20390;-76
2022/08/17 11:26:30;;;;;;;0.40;0.30;;;24.20;99.90;;;;;;5090056;28;20748;-77
2022/08/17 11:29:00;;;;;;;0.60;0.40;;;23.90;99.90;;;;;;5091967;28;20378;-77
2022/08/17 11:31:34;;;;;;;0.40;0.20;;;23.90;99.90;;;;;;5090813;28;20385;-77
2022/08/17 11:34:18;;;;;;;0.40;0.20;;;23.70;99.90;;;;;;5091714;28;20424;-75
2022/08/17 11:37:05;;;;;;;0.40;0.40;;;23.70;99.90;;;;;;5088106;28;20457;-74
2022/08/17 11:40:04;;;;;;;0.40;0.20;;;23.80;99.90;;;;;;5091040;28;20385;-76
2022/08/17 11:42:53;;;;;;;0.40;0.30;;;23.90;99.90;;;;;;5089787;28;20455;-75
2022/08/17 11:45:30;;;;;;;0.40;0.30;;;24.00;99.90;;;;;;5091621;28;20799;-75
2022/08/17 11:51:34;;;;;;;0.40;0.20;;;24.80;99.90;;;;;;5090885;28;20365;-75
2022/08/17 11:54:28;;;;;;;0.60;0.60;;;25.30;99.90;;;;;;5091485;28;20545;-77
2022/08/17 11:56:53;;;;;;;0.70;0.60;;;25.90;99.90;;;;;;5076585;28;20486;-76
2022/08/17 11:59:46;;;;;;;0.50;0.40;;;26.40;99.90;;;;;;5091593;28;20378;-76
2022/08/17 12:02:20;;;;;;;0.40;0.20;;;26.90;99.90;;;;;;5090700;28;20922;-77
2022/08/17 12:05:01;;;;;;;0.40;0.20;;;27.20;99.90;;;;;;5089850;28;20421;-75
2022/08/17 12:07:31;;;;;;;0.40;0.40;;;27.70;96.90;;;;;;5094441;28;20743;-77
2022/08/17 12:09:58;;;;;;;0.40;0.40;;;28.00;98.40;;;;;;5093642;28;20895;-76
2022/08/17 12:12:31;;;;;;;0.40;0.20;;;27.40;93.90;;;;;;5091560;28;20414;-77
2022/08/17 12:14:58;;;;;;;0.40;0.20;;;28.20;86.30;;;;;;5093513;28;20436;-76
2022/08/17 12:17:27;;;;;;;0.40;0.20;;;28.40;82.20;;;;;;5092526;28;20378;-76
2022/08/17 12:19:53;;;;;;;0.50;0.40;;;28.00;80.50;;;;;;5091859;28;20751;-75
2022/08/17 12:22:32;;;;;;;0.40;0.30;;;27.90;86.60;;;;;;5092203;28;20390;-76
2022/08/17 12:25:14;;;;;;;0.40;0.20;;;27.70;86.20;;;;;;5092239;28;20390;-76
2022/08/17 12:27:49;;;;;;;0.40;0.20;;;27.40;91.50;;;;;;5092096;28;20410;-75
2022/08/17 12:30:18;;;;;;;0.40;0.20;;;27.60;93.50;;;;;;5092087;28;20863;-76
2022/08/17 12:32:47;;;;;;;0.40;0.30;;;27.90;90.40;;;;;;5090066;28;20382;-76
2022/08/17 12:35:37;;;;;;;0.40;0.20;;;27.80;91.20;;;;;;5091802;28;20427;-76
2022/08/17 12:38:09;;;;;;;0.40;0.30;;;28.50;90.80;;;;;;5092261;28;20465;-76
2022/08/17 12:40:34;;;;;;;0.40;0.30;;;28.90;88.60;;;;;;5091866;28;20952;-76
2022/08/17 12:43:03;;;;;;;0.40;0.20;;;28.90;78.10;;;;;;5091510;28;20382;-75
2022/08/17 12:45:33;;;;;;;0.40;0.20;;;28.20;76.80;;;;;;5091861;28;20378;-76
2022/08/17 12:48:02;;;;;;;0.40;0.30;;;28.40;78.30;;;;;;5091837;28;20473;-75
2022/08/17 12:50:28;;;;;;;0.40;0.20;;;28.90;71.20;;;;;;5091693;28;20382;-76
2022/08/17 12:52:54;;;;;;;0.40;0.25;;;29.20;67.40;;;;;;5091248;28;20378;-74
2022/08/17 12:55:23;;;;;;;0.40;0.20;;;28.60;68.50;;;;;;5091412;28;20436;-75
2022/08/17 12:57:52;;;;;;;0.40;0.20;;;28.60;71.10;;;;;;5091302;28;20402;-75
2022/08/17 13:00:24;;;;;;;0.40;0.30;;;28.70;67.40;;;;;;5091493;28;20425;-74
2022/08/17 13:03:02;;;;;;;0.40;0.20;;;28.50;71.00;;;;;;5089862;28;20394;-75
2022/08/17 13:05:35;;;;;;;0.40;0.20;;;28.70;65.40;;;;;;5091170;28;20442;-74
2022/08/17 13:08:13;;;;;;;0.40;0.30;;;28.30;67.10;;;;;;5090701;28;20398;-74
2022/08/17 13:10:39;;;;;;;0.50;0.50;;;28.50;68.90;;;;;;5091200;28;20815;-75
2022/08/17 13:13:25;;;;;;;0.40;0.20;;;28.90;69.10;;;;;;5090937;28;20388;-74
2022/08/17 13:15:55;;;;;;;0.40;0.20;;;29.10;67.80;;;;;;5091274;28;20382;-75
2022/08/17 13:18:42;;;;;;;0.40;0.20;;;28.50;64.10;;;;;;5091071;28;20778;-73
2022/08/17 13:21:25;;;;;;;0.40;0.30;;;27.90;70.80;;;;;;5091068;28;20374;-73
2022/08/17 13:24:01;;;;;;;0.40;0.20;;;28.00;72.50;;;;;;5089751;28;20382;-74
2022/08/17 13:26:29;;;;;;;0.40;0.30;;;28.60;71.00;;;;;;5090998;28;20791;-73
2022/08/17 13:28:55;;;;;;;0.40;0.20;;;28.70;68.80;;;;;;5090750;28;20370;-73
2022/08/17 13:31:26;;;;;;;0.40;0.30;;;28.70;69.70;;;;;;5089992;28;20432;-74
2022/08/17 13:34:31;;;;;;;0.40;0.30;;;28.70;68.00;;;;;;5090175;28;20548;-75
2022/08/17 13:37:25;;;;;;;0.40;0.30;;;28.20;71.90;;;;;;5076206;28;20390;-74
2022/08/17 13:40:11;;;;;;;0.50;0.40;;;27.80;73.70;;;;;;5081438;28;20498;-74
2022/08/17 13:42:46;;;;;;;0.40;0.20;;;27.90;74.80;;;;;;5090203;28;20390;-75
2022/08/17 13:45:27;;;;;;;0.40;0.20;;;27.70;72.30;;;;;;5090757;28;20405;-74